Lavaca Bay — WDF2105 — position and weather

sailwx.info

Track history (hours):
 
Tides and Currents Weather Stations Pressure Air Temp Water Temp Dewpoint Dewpoint Depression Visibility Wind Speed Wind Dir Waves Ship Positions

Lavaca Bay

Owner: Higman Barge Lines, Inc, Orange, TX. More information available from US FCC via Universal Licensing System and Coast Guard Vessel Documentation Center.

Last reported at 2014-Oct-13 02:33 UTC. Time now 2014-Oct-25 19:03 UTC.
Position N 29°48' W 095°04'.
Warning: this ship's position is 12 days out of date.

Length 24 m; draft 3 m.

Type: Towing. MMSI: 367424940.

Date/timePositionNaut miles runAvg speedWind from/ knotsBaromVisibWave heightAir tempDewpointWater temp
2014-Oct-13 02:33N 29°48' W 095°04'0 0.0
2014-Oct-13 01:33N 29°48' W 095°04'0 0.0
2014-Oct-13 00:33N 29°48' W 095°04'0 0.0
2014-Oct-12 23:33N 29°48' W 095°04'4 3.7
2014-Oct-12 22:33N 29°45' W 095°07'0 0.0
2014-Oct-12 21:33N 29°45' W 095°07'0 0.0
2014-Oct-12 20:33N 29°45' W 095°07'0 0.0
2014-Oct-12 19:33N 29°45' W 095°07'0 0.0
2014-Oct-12 18:33N 29°45' W 095°07'0 0.0
2014-Oct-12 17:33N 29°45' W 095°07'0 0.0
2014-Oct-12 16:33N 29°45' W 095°07'0 0.0
2014-Oct-12 15:33N 29°45' W 095°07'6 5.9
2014-Oct-12 14:33N 29°42' W 095°00'8 8.2
2014-Oct-12 13:33N 29°35' W 094°56'9 8.5
2014-Oct-12 12:32N 29°27' W 094°51'170 4.2
2014-Oct-10 20:08N 29°45' W 091°36'4 6.3
2014-Oct-10 19:33N 29°43' W 091°33'5 4.8
2014-Oct-10 18:32N 29°41' W 091°28'0 0.0
2014-Oct-10 17:33N 29°41' W 091°28'0 0.0
2014-Oct-10 16:22N 29°41' W 091°28'0 0.2
2014-Oct-10 15:33N 29°40' W 091°27'3 2.6
2014-Oct-10 14:33N 29°39' W 091°25'7 7.2
2014-Oct-10 13:33N 29°39' W 091°17'5 4.8
2014-Oct-10 12:33N 29°41' W 091°12'4 4.3
2014-Oct-10 11:33N 29°39' W 091°07'5 4.6
2014-Oct-10 10:33N 29°37' W 091°02'4 4.2
2014-Oct-10 09:33N 29°36' W 090°58'6 6.4
2014-Oct-10 08:33N 29°32' W 090°52'35 1.8
2014-Oct-09 12:33N 29°57' W 090°23'6 0.6
2014-Oct-09 01:26N 29°58' W 090°16'6 6.8
2014-Oct-09 00:33N 29°57' W 090°23'1 1.5
2014-Oct-08 23:33N 29°58' W 090°24'0 0.2
2014-Oct-08 22:33N 29°58' W 090°24'1 0.1
2014-Oct-08 12:06N 29°59' W 090°24'0 0.0
2014-Oct-08 11:33N 29°59' W 090°24'0 0.0
2014-Oct-08 10:33N 29°59' W 090°24'0 0.0
2014-Oct-08 09:33N 29°59' W 090°24'0 0.0
2014-Oct-08 08:33N 29°59' W 090°24'0 0.0
2014-Oct-08 07:33N 29°59' W 090°24'0 0.0
2014-Oct-08 06:33N 29°59' W 090°24'0 0.1
2014-Oct-08 05:33N 29°59' W 090°24'0 0.0
2014-Oct-08 04:33N 29°59' W 090°24'0 0.0
2014-Oct-08 03:33N 29°59' W 090°24'0 0.0
2014-Oct-08 02:33N 29°59' W 090°24'5 0.4
2014-Oct-07 12:27N 29°56' W 090°20'0 0.0
2014-Oct-07 11:33N 29°56' W 090°20'0 0.0
2014-Oct-07 10:34N 29°56' W 090°20'0 0.0
2014-Oct-07 09:29N 29°56' W 090°20'0 0.0
2014-Oct-07 08:32N 29°56' W 090°20'0 0.0
2014-Oct-07 07:34N 29°56' W 090°20'0 0.0
2014-Oct-07 06:33N 29°56' W 090°20'0 0.0
2014-Oct-07 04:28N 29°56' W 090°20'0 0.0
2014-Oct-07 02:04N 29°56' W 090°20'0 0.0
2014-Oct-07 01:21N 29°56' W 090°20'0 0.0
2014-Oct-07 00:24N 29°56' W 090°20'0 0.2
2014-Oct-06 23:26N 29°56' W 090°20'12 4.8
2014-Oct-06 21:03N 30°03' W 090°31'3 6.6
2014-Oct-06 20:33N 30°03' W 090°34'  
Track history (hours):
 
Tides and Currents Weather Stations Pressure Air Temp Water Temp Dewpoint Dewpoint Depression Visibility Wind Speed Wind Dir Waves Ship Positions

Lavaca Bay

Owner: Higman Barge Lines, Inc, Orange, TX. More information available from US FCC via Universal Licensing System and Coast Guard Vessel Documentation Center.

Last reported at 2014-Oct-13 02:33 UTC. Time now 2014-Oct-25 19:03 UTC.
Position N 29°48' W 095°04'.
Warning: this ship's position is 12 days out of date.

Length 24 m; draft 3 m.

Type: Towing. MMSI: 367424940.

Date/timePositionNaut miles runAvg speedWind from/ knotsBaromVisibWave heightAir tempDewpointWater temp
2014-Oct-13 02:33N 29°48' W 095°04'0 0.0
2014-Oct-13 01:33N 29°48' W 095°04'0 0.0
2014-Oct-13 00:33N 29°48' W 095°04'0 0.0
2014-Oct-12 23:33N 29°48' W 095°04'4 3.7
2014-Oct-12 22:33N 29°45' W 095°07'0 0.0
2014-Oct-12 21:33N 29°45' W 095°07'0 0.0
2014-Oct-12 20:33N 29°45' W 095°07'0 0.0
2014-Oct-12 19:33N 29°45' W 095°07'0 0.0
2014-Oct-12 18:33N 29°45' W 095°07'0 0.0
2014-Oct-12 17:33N 29°45' W 095°07'0 0.0
2014-Oct-12 16:33N 29°45' W 095°07'0 0.0
2014-Oct-12 15:33N 29°45' W 095°07'6 5.9
2014-Oct-12 14:33N 29°42' W 095°00'8 8.2
2014-Oct-12 13:33N 29°35' W 094°56'9 8.5
2014-Oct-12 12:32N 29°27' W 094°51'170 4.2
2014-Oct-10 20:08N 29°45' W 091°36'4 6.3
2014-Oct-10 19:33N 29°43' W 091°33'5 4.8
2014-Oct-10 18:32N 29°41' W 091°28'0 0.0
2014-Oct-10 17:33N 29°41' W 091°28'0 0.0
2014-Oct-10 16:22N 29°41' W 091°28'0 0.2
2014-Oct-10 15:33N 29°40' W 091°27'3 2.6
2014-Oct-10 14:33N 29°39' W 091°25'7 7.2
2014-Oct-10 13:33N 29°39' W 091°17'5 4.8
2014-Oct-10 12:33N 29°41' W 091°12'4 4.3
2014-Oct-10 11:33N 29°39' W 091°07'5 4.6
2014-Oct-10 10:33N 29°37' W 091°02'4 4.2
2014-Oct-10 09:33N 29°36' W 090°58'6 6.4
2014-Oct-10 08:33N 29°32' W 090°52'35 1.8
2014-Oct-09 12:33N 29°57' W 090°23'6 0.6
2014-Oct-09 01:26N 29°58' W 090°16'6 6.8
2014-Oct-09 00:33N 29°57' W 090°23'1 1.5
2014-Oct-08 23:33N 29°58' W 090°24'0 0.2
2014-Oct-08 22:33N 29°58' W 090°24'1 0.1
2014-Oct-08 12:06N 29°59' W 090°24'0 0.0
2014-Oct-08 11:33N 29°59' W 090°24'0 0.0
2014-Oct-08 10:33N 29°59' W 090°24'0 0.0
2014-Oct-08 09:33N 29°59' W 090°24'0 0.0
2014-Oct-08 08:33N 29°59' W 090°24'0 0.0
2014-Oct-08 07:33N 29°59' W 090°24'0 0.0
2014-Oct-08 06:33N 29°59' W 090°24'0 0.1
2014-Oct-08 05:33N 29°59' W 090°24'0 0.0
2014-Oct-08 04:33N 29°59' W 090°24'0 0.0
2014-Oct-08 03:33N 29°59' W 090°24'0 0.0
2014-Oct-08 02:33N 29°59' W 090°24'5 0.4
2014-Oct-07 12:27N 29°56' W 090°20'0 0.0
2014-Oct-07 11:33N 29°56' W 090°20'0 0.0
2014-Oct-07 10:34N 29°56' W 090°20'0 0.0
2014-Oct-07 09:29N 29°56' W 090°20'0 0.0
2014-Oct-07 08:32N 29°56' W 090°20'0 0.0
2014-Oct-07 07:34N 29°56' W 090°20'0 0.0
2014-Oct-07 06:33N 29°56' W 090°20'0 0.0
2014-Oct-07 04:28N 29°56' W 090°20'0 0.0
2014-Oct-07 02:04N 29°56' W 090°20'0 0.0
2014-Oct-07 01:21N 29°56' W 090°20'0 0.0
2014-Oct-07 00:24N 29°56' W 090°20'0 0.2
2014-Oct-06 23:26N 29°56' W 090°20'12 4.8
2014-Oct-06 21:03N 30°03' W 090°31'3 6.6
2014-Oct-06 20:33N 30°03' W 090°34'  

Dump ship's entire track history